Time;durP1;ratioP1;P1;durP2;ratioP2;P2;SDS_P1;SDS_P2;PMS_P1;PMS_P2;Temp;Humidity;BMP_temperature;BMP_pressure;BME280_temperature;BME280_humidity;BME280_pressure;Samples;Min_cycle;Max_cycle;Signal;HPM_P1;HPM_P2
2021/06/21 00:00:44;;;;;;;6.57;1.50;;;;;;;13.53;100.00;92325.38;2105811;28;20366;-86
2021/06/21 00:01:44;;;;;;;7.28;1.65;;;;;;;13.47;100.00;92334.50;2097323;28;20032;-86
2021/06/21 00:02:45;;;;;;;5.28;1.90;;;;;;;13.49;100.00;92343.59;2101337;28;20029;-85
2021/06/21 00:03:48;;;;;;;4.68;1.50;;;;;;;13.51;100.00;92335.06;2088864;28;20017;-86
2021/06/21 00:04:50;;;;;;;4.28;1.30;;;;;;;13.68;100.00;92344.25;2089027;28;20050;-86
2021/06/21 00:05:50;;;;;;;5.78;1.50;;;;;;;13.59;100.00;92345.03;2097333;28;20146;-86
2021/06/21 00:06:51;;;;;;;10.30;1.50;;;;;;;13.67;100.00;92350.09;2105241;28;20028;-85
2021/06/21 00:07:52;;;;;;;10.95;1.83;;;;;;;13.59;100.00;92352.34;2105804;28;20073;-87
2021/06/21 00:08:52;;;;;;;7.50;1.90;;;;;;;13.46;100.00;92357.91;2097226;28;20034;-86
2021/06/21 00:09:56;;;;;;;6.70;1.52;;;;;;;13.48;100.00;92360.91;2097407;28;20032;-85
2021/06/21 00:10:57;;;;;;;4.90;1.33;;;;;;;13.58;100.00;92361.63;2110642;27;20027;-86
2021/06/21 00:11:58;;;;;;;5.93;1.52;;;;;;;13.60;100.00;92356.53;2105437;28;20020;-86
2021/06/21 00:12:58;;;;;;;6.40;1.70;;;;;;;13.49;100.00;92359.69;2088699;28;20048;-86
2021/06/21 00:13:59;;;;;;;6.78;1.27;;;;;;;13.47;100.00;92361.34;2096740;28;20027;-86
2021/06/21 00:15:00;;;;;;;4.80;1.55;;;;;;;13.44;100.00;92365.69;2101992;28;20503;-87
2021/06/21 00:16:02;;;;;;;5.75;1.48;;;;;;;13.50;100.00;92358.50;2101387;28;20028;-86
2021/06/21 00:17:03;;;;;;;4.82;1.60;;;;;;;13.51;100.00;92354.63;2105692;28;20020;-86
2021/06/21 00:18:04;;;;;;;5.22;1.75;;;;;;;13.58;100.00;92357.00;2088917;28;20099;-86
2021/06/21 00:19:05;;;;;;;4.90;1.38;;;;;;;13.56;100.00;92359.41;2097111;28;20115;-86
2021/06/21 00:20:06;;;;;;;9.13;1.88;;;;;;;13.51;100.00;92364.63;2105458;28;20050;-86
2021/06/21 00:21:07;;;;;;;4.70;1.33;;;;;;;13.49;100.00;92356.28;2109628;28;20394;-86
2021/06/21 00:22:08;;;;;;;4.60;1.20;;;;;;;13.51;100.00;92351.94;2105320;28;20066;-85
2021/06/21 00:23:08;;;;;;;3.47;1.42;;;;;;;13.50;100.00;92358.50;2109661;28;20074;-86
2021/06/21 00:24:09;;;;;;;11.57;2.08;;;;;;;13.52;100.00;92356.13;2105144;28;20445;-86
2021/06/21 00:25:11;;;;;;;4.50;1.40;;;;;;;13.54;100.00;92353.72;2094600;28;20202;-87
2021/06/21 00:26:12;;;;;;;4.78;1.45;;;;;;;13.53;100.00;92359.56;2097081;28;20028;-86
2021/06/21 00:27:13;;;;;;;2.95;1.55;;;;;;;13.51;100.00;92368.03;2096814;28;20123;-86
2021/06/21 00:28:15;;;;;;;5.53;1.77;;;;;;;13.52;100.00;92366.09;2096585;28;20024;-87
2021/06/21 00:29:17;;;;;;;5.22;1.50;;;;;;;13.48;100.00;92365.53;2105306;28;20024;-85
2021/06/21 00:30:19;;;;;;;8.57;1.35;;;;;;;13.52;100.00;92366.09;2097047;28;20028;-85
2021/06/21 00:31:20;;;;;;;9.23;1.73;;;;;;;13.55;100.00;92370.56;2103469;28;20028;-86
2021/06/21 00:32:20;;;;;;;4.20;1.67;;;;;;;13.55;100.00;92370.56;2105612;28;20550;-86
2021/06/21 00:33:21;;;;;;;3.50;1.27;;;;;;;13.59;100.00;92369.22;2105413;28;20020;-86
2021/06/21 00:34:22;;;;;;;4.97;1.52;;;;;;;13.63;100.00;92379.06;2105145;28;20077;-85
2021/06/21 00:35:23;;;;;;;5.93;1.80;;;;;;;13.63;100.00;92376.38;2113199;28;20024;-86
2021/06/21 00:36:23;;;;;;;3.40;1.27;;;;;;;13.59;100.00;92381.91;2097030;28;20488;-85
2021/06/21 00:37:24;;;;;;;7.25;1.38;;;;;;;13.59;100.00;92381.91;2096588;28;20076;-85
2021/06/21 00:38:25;;;;;;;4.72;1.50;;;;;;;13.60;100.00;92376.06;2098053;28;20028;-86
2021/06/21 00:39:25;;;;;;;6.25;1.50;;;;;;;13.62;100.00;92370.25;2101176;28;20046;-86
2021/06/21 00:40:27;;;;;;;3.45;1.50;;;;;;;13.55;100.00;92374.00;2090975;28;20029;-86
2021/06/21 00:41:27;;;;;;;6.43;1.52;;;;;;;13.60;100.00;92372.63;2097092;28;20036;-86
2021/06/21 00:42:28;;;;;;;5.25;1.38;;;;;;;13.62;100.00;92372.19;2097089;28;20047;-85
2021/06/21 00:43:29;;;;;;;6.63;1.83;;;;;;;13.69;100.00;92374.56;2096955;28;20769;-87
2021/06/21 00:44:30;;;;;;;5.55;1.40;;;;;;;13.67;100.00;92376.97;2105045;28;20034;-86
2021/06/21 00:45:31;;;;;;;4.43;1.35;;;;;;;13.66;100.00;92373.53;2103423;28;20059;-86
2021/06/21 00:46:32;;;;;;;6.95;1.60;;;;;;;13.68;100.00;92370.38;2113300;28;20365;-87
2021/06/21 00:47:32;;;;;;;5.57;1.48;;;;;;;13.68;100.00;92359.63;2096993;28;20105;-86
2021/06/21 00:48:33;;;;;;;8.52;1.60;;;;;;;13.64;100.00;92365.16;2105396;28;20028;-87
2021/06/21 00:49:34;;;;;;;10.38;1.35;;;;;;;13.62;100.00;92370.25;2111194;28;20050;-86
2021/06/21 00:50:35;;;;;;;4.38;1.20;;;;;;;13.53;100.00;92370.28;2096808;28;20017;-86
2021/06/21 00:51:35;;;;;;;8.52;1.70;;;;;;;13.56;100.00;92375.50;2097015;28;20024;-85
2021/06/21 00:52:36;;;;;;;3.05;1.10;;;;;;;13.44;100.00;92373.00;2113398;28;20513;-86
2021/06/21 00:53:37;;;;;;;4.93;1.58;;;;;;;13.40;100.00;92375.84;2105227;28;20447;-85
2021/06/21 00:54:38;;;;;;;7.25;1.48;;;;;;;13.49;100.00;92377.75;2109321;28;20015;-86
2021/06/21 00:55:39;;;;;;;6.38;2.00;;;;;;;13.48;100.00;92387.00;2113233;28;20031;-85
2021/06/21 00:56:40;;;;;;;4.03;1.40;;;;;;;13.43;100.00;92401.03;2096733;28;20031;-86
2021/06/21 00:57:41;;;;;;;4.15;1.65;;;;;;;13.44;100.00;92391.78;2088599;28;20091;-86
2021/06/21 00:58:42;;;;;;;6.60;1.92;;;;;;;13.48;100.00;92385.06;2088737;28;20017;-86
2021/06/21 00:59:43;;;;;;;6.70;1.50;;;;;;;13.50;100.00;92371.94;2096751;28;20021;-86
2021/06/21 01:00:43;;;;;;;4.45;1.45;;;;;;;13.52;100.00;92380.28;2096586;28;20028;-85
2021/06/21 01:01:44;;;;;;;4.30;1.52;;;;;;;13.57;100.00;92389.66;2096436;28;20058;-86
2021/06/21 01:02:45;;;;;;;10.07;1.33;;;;;;;13.51;100.00;92384.16;2102177;28;20020;-86
2021/06/21 01:03:46;;;;;;;5.82;1.70;;;;;;;13.52;100.00;92387.56;2109397;28;20027;-86
2021/06/21 01:04:46;;;;;;;7.57;1.85;;;;;;;13.52;100.00;92390.25;2106564;28;20576;-85
2021/06/21 01:05:47;;;;;;;4.35;1.67;;;;;;;13.49;100.00;92396.56;2110410;28;20520;-86
2021/06/21 01:06:48;;;;;;;7.80;1.65;;;;;;;13.48;100.00;92405.81;2113182;28;20057;-86
2021/06/21 01:07:50;;;;;;;6.60;1.67;;;;;;;13.52;100.00;92407.13;2104790;28;20244;-85
2021/06/21 01:08:51;;;;;;;5.95;1.65;;;;;;;13.49;100.00;92416.09;2096768;28;20031;-85
2021/06/21 01:09:54;;;;;;;7.22;1.45;;;;;;;13.53;100.00;92426.69;2105053;28;20547;-85
2021/06/21 01:10:56;;;;;;;6.63;2.17;;;;;;;13.53;100.00;92427.41;2113795;28;20404;-85
2021/06/21 01:12:04;;;;;;;4.40;1.23;;;;;;;13.49;100.00;92429.50;2104866;28;20148;-85
2021/06/21 01:13:19;;;;;;;5.90;1.70;;;;;;;13.51;100.00;92439.78;2089975;28;20115;-85
2021/06/21 01:14:27;;;;;;;5.45;1.65;;;;;;;13.59;100.00;92449.78;2098485;28;20159;-86
2021/06/21 01:15:32;;;;;;;4.50;1.33;;;;;;;13.49;100.00;92447.56;2105758;28;20092;-86
2021/06/21 01:16:44;;;;;;;4.38;1.55;;;;;;;13.53;100.00;92438.16;2097090;28;20021;-85
2021/06/21 01:17:51;;;;;;;6.47;1.73;;;;;;;13.47;100.00;92450.69;2104883;28;20069;-85
2021/06/21 01:19:18;;;;;;;5.20;1.52;;;;;;;13.66;100.00;92447.97;2105892;28;20077;-86
2021/06/21 01:20:41;;;;;;;3.65;1.17;;;;;;;13.66;100.00;92456.78;2102400;28;20055;-86
2021/06/21 01:21:45;;;;;;;7.68;1.50;;;;;;;13.62;100.00;92458.13;2087162;28;20058;-85
2021/06/21 01:23:09;;;;;;;5.95;1.27;;;;;;;13.69;100.00;92455.13;2088603;28;20024;-85
2021/06/21 01:24:10;;;;;;;4.25;1.50;;;;;;;13.70;100.00;92459.31;2095073;28;20024;-86
2021/06/21 01:25:13;;;;;;;5.95;1.88;;;;;;;13.62;100.00;92452.75;2108804;28;20447;-86
2021/06/21 01:26:20;;;;;;;5.35;1.65;;;;;;;13.58;100.00;92437.53;2112199;28;20031;-86
2021/06/21 01:27:30;;;;;;;3.88;1.30;;;;;;;13.58;100.00;92442.19;2104695;28;20393;-86
2021/06/21 01:28:43;;;;;;;4.82;1.88;;;;;;;13.56;100.00;92439.19;2103706;27;20170;-86
2021/06/21 01:30:18;;;;;;;8.57;1.77;;;;;;;13.62;100.00;92433.97;2113060;28;20384;-85
2021/06/21 01:31:21;;;;;;;5.97;1.73;;;;;;;13.53;100.00;92438.16;2108821;28;20075;-87
2021/06/21 01:32:49;;;;;;;5.82;1.52;;;;;;;13.59;100.00;92435.59;2096722;28;20028;-86
2021/06/21 01:33:53;;;;;;;7.60;1.70;;;;;;;13.66;100.00;92439.94;2104156;28;20077;-85
2021/06/21 01:34:59;;;;;;;7.28;1.73;;;;;;;13.56;100.00;92433.81;2104986;28;20024;-86
2021/06/21 01:36:02;;;;;;;5.95;1.52;;;;;;;13.59;100.00;92440.97;2105352;28;20020;-85
2021/06/21 01:37:05;;;;;;;6.15;1.40;;;;;;;13.59;100.00;92436.34;2105135;28;20032;-86
2021/06/21 01:38:12;;;;;;;7.07;1.75;;;;;;;13.62;100.00;92421.28;2105001;28;20035;-86
2021/06/21 01:39:13;;;;;;;3.78;1.55;;;;;;;13.59;100.00;92430.22;2107664;28;20031;-87
2021/06/21 01:40:18;;;;;;;9.10;1.67;;;;;;;13.64;100.00;92426.94;2112820;28;20468;-86
2021/06/21 01:41:24;;;;;;;6.57;1.50;;;;;;;13.59;100.00;92420.22;2105069;28;20024;-87
2021/06/21 01:42:26;;;;;;;8.07;2.17;;;;;;;13.70;100.00;92419.78;2105650;28;20016;-86
2021/06/21 01:43:33;;;;;;;7.32;1.67;;;;;;;13.67;100.00;92417.25;2101143;28;20020;-86
2021/06/21 01:44:39;;;;;;;5.60;1.65;;;;;;;13.71;100.00;92421.25;2097316;28;20513;-85
2021/06/21 01:45:41;;;;;;;3.80;1.23;;;;;;;13.73;100.00;92424.22;2097442;28;20130;-85
2021/06/21 01:46:43;;;;;;;7.70;1.63;;;;;;;13.75;100.00;92413.03;2105117;28;20031;-86
2021/06/21 01:47:49;;;;;;;5.47;1.67;;;;;;;13.70;100.00;92413.66;2105089;28;20107;-85
2021/06/21 01:48:55;;;;;;;5.47;1.38;;;;;;;13.71;100.00;92425.88;2105811;28;20032;-86
2021/06/21 01:49:57;;;;;;;6.88;1.52;;;;;;;13.67;100.00;92422.63;2109762;27;20064;-86
2021/06/21 01:51:00;;;;;;;3.78;1.17;;;;;;;13.68;100.00;92427.53;2104696;28;20196;-87
2021/06/21 01:52:02;;;;;;;4.40;1.33;;;;;;;13.67;100.00;92422.63;2097107;28;20066;-86
2021/06/21 01:53:15;;;;;;;4.60;1.08;;;;;;;13.63;100.00;92425.44;2113083;28;20015;-86
2021/06/21 01:54:22;;;;;;;5.18;1.33;;;;;;;13.68;100.00;92422.16;2104742;28;20031;-86
2021/06/21 01:55:25;;;;;;;6.18;1.60;;;;;;;13.71;100.00;92429.31;2089474;28;20033;-85
2021/06/21 01:56:37;;;;;;;5.55;1.38;;;;;;;13.76;100.00;92426.00;2104917;28;20028;-86
2021/06/21 01:57:40;;;;;;;5.32;1.45;;;;;;;13.76;100.00;92415.25;2104533;28;20027;-85
2021/06/21 01:58:41;;;;;;;6.13;1.73;;;;;;;13.80;100.00;92405.09;2088613;28;20485;-86
2021/06/21 01:59:43;;;;;;;5.60;1.20;;;;;;;13.79;100.00;92400.19;2096493;28;20070;-86
2021/06/21 02:00:46;;;;;;;6.57;1.50;;;;;;;13.81;100.00;92403.16;2105087;28;20027;-86
2021/06/21 02:01:47;;;;;;;7.22;1.58;;;;;;;13.79;100.00;92410.94;2108990;28;20485;-86
2021/06/21 02:02:52;;;;;;;8.40;1.27;;;;;;;13.81;100.00;92417.34;2104784;28;20138;-86
2021/06/21 02:05:52;;;;;;;;;;;;;;;13.81;100.00;92421.97;2133902;27;20119;-83
2021/06/21 02:06:54;;;;;;;5.93;1.45;;;;;;;13.78;100.00;92434.38;2128027;27;19911;-85
2021/06/21 02:07:55;;;;;;;7.03;1.40;;;;;;;13.76;100.00;92427.97;2112362;28;20377;-85
2021/06/21 02:08:57;;;;;;;4.60;1.50;;;;;;;13.77;100.00;92422.13;2108193;28;20032;-86
2021/06/21 02:09:58;;;;;;;6.65;1.67;;;;;;;13.75;100.00;92427.22;2116142;27;20477;-86
2021/06/21 02:10:59;;;;;;;8.73;1.65;;;;;;;13.75;100.00;92426.47;2116120;27;20038;-87
2021/06/21 02:12:01;;;;;;;7.38;1.92;;;;;;;13.73;100.00;92426.16;2124891;27;20027;-87
2021/06/21 02:13:03;;;;;;;2.35;1.00;;;;;;;13.71;100.00;92436.63;2119351;28;20404;-87
2021/06/21 02:14:06;;;;;;;5.25;1.50;;;;;;;13.74;100.00;92428.41;2100708;28;20356;-85
2021/06/21 02:15:08;;;;;;;4.30;1.42;;;;;;;13.72;100.00;92428.09;2120908;27;20034;-86
2021/06/21 02:16:10;;;;;;;4.90;1.58;;;;;;;13.74;100.00;92423.03;2127221;27;20018;-86
2021/06/21 02:17:11;;;;;;;4.18;1.13;;;;;;;13.78;100.00;92420.19;2105686;28;20162;-85
2021/06/21 02:18:12;;;;;;;3.85;1.50;;;;;;;13.79;100.00;92424.38;2105357;28;20028;-86
2021/06/21 02:19:14;;;;;;;7.78;1.50;;;;;;;13.79;100.00;92425.13;2110338;28;20035;-85
2021/06/21 02:20:16;;;;;;;7.00;1.50;;;;;;;13.78;100.00;92428.22;2100802;28;20024;-85
2021/06/21 02:21:19;;;;;;;4.00;1.20;;;;;;;13.78;100.00;92423.63;2111145;27;20492;-87
2021/06/21 02:22:28;;;;;;;4.63;1.65;;;;;;;13.79;100.00;92419.00;2108124;28;20072;-85
2021/06/21 02:23:29;;;;;;;8.40;1.88;;;;;;;13.75;100.00;92418.41;2121701;27;20549;-86
2021/06/21 02:24:30;;;;;;;3.95;1.40;;;;;;;13.69;100.00;92420.22;2107544;28;20032;-86
2021/06/21 02:25:31;;;;;;;3.92;1.40;;;;;;;13.71;100.00;92415.13;2111115;28;20115;-86
2021/06/21 02:26:31;;;;;;;5.47;1.38;;;;;;;13.77;100.00;92416.00;2108517;28;20031;-85
2021/06/21 02:27:35;;;;;;;6.72;1.30;;;;;;;13.76;100.00;92417.22;2107412;28;20024;-83
2021/06/21 02:28:37;;;;;;;3.38;1.13;;;;;;;13.70;100.00;92419.78;2128697;27;20019;-85
2021/06/21 02:29:39;;;;;;;5.10;1.52;;;;;;;13.72;100.00;92411.25;2106426;28;20381;-85
2021/06/21 02:30:40;;;;;;;5.93;1.20;;;;;;;13.70;100.00;92416.34;2105325;28;20133;-85
2021/06/21 02:31:41;;;;;;;2.58;1.15;;;;;;;13.71;100.00;92428.56;2110756;28;20024;-85
2021/06/21 02:32:45;;;;;;;5.38;1.30;;;;;;;13.58;100.00;92442.91;2112064;28;20035;-85
2021/06/21 02:33:46;;;;;;;9.18;1.77;;;;;;;13.69;100.00;92441.69;2105838;28;20028;-85
2021/06/21 02:34:47;;;;;;;3.80;1.52;;;;;;;13.68;100.00;92442.91;2098875;28;20099;-85
2021/06/21 02:35:48;;;;;;;5.07;1.38;;;;;;;13.63;100.00;92448.88;2114797;28;20432;-86
2021/06/21 02:36:49;;;;;;;5.13;1.50;;;;;;;13.64;100.00;92443.03;2124972;27;20023;-86
2021/06/21 02:37:50;;;;;;;4.60;1.20;;;;;;;13.63;100.00;92438.13;2120456;28;20429;-85
2021/06/21 02:38:51;;;;;;;2.92;1.30;;;;;;;13.65;100.00;92433.03;2124454;27;20026;-85
2021/06/21 02:39:52;;;;;;;3.67;1.45;;;;;;;13.68;100.00;92432.91;2115750;28;20036;-85
2021/06/21 02:40:53;;;;;;;7.63;1.77;;;;;;;13.76;100.00;92433.31;2107254;28;20111;-86
2021/06/21 02:41:53;;;;;;;10.65;1.55;;;;;;;13.75;100.00;92439.91;2120362;28;20556;-85
2021/06/21 02:42:54;;;;;;;5.68;1.40;;;;;;;13.72;100.00;92444.22;2107274;28;20019;-84
2021/06/21 02:43:55;;;;;;;5.20;1.40;;;;;;;13.72;100.00;92443.47;2111820;28;20032;-85
2021/06/21 02:44:56;;;;;;;6.22;1.50;;;;;;;13.71;100.00;92444.69;2115581;27;20019;-85
2021/06/21 02:45:57;;;;;;;4.18;1.38;;;;;;;13.77;100.00;92445.56;2107574;28;20119;-84
2021/06/21 02:46:58;;;;;;;7.25;1.30;;;;;;;13.74;100.00;92441.06;2098980;28;20021;-85
2021/06/21 02:48:00;;;;;;;6.80;1.40;;;;;;;13.74;100.00;92444.53;2111914;28;20081;-85
2021/06/21 02:49:01;;;;;;;2.95;1.10;;;;;;;13.75;100.00;92440.66;2125251;27;20486;-84
2021/06/21 02:50:04;;;;;;;3.47;1.33;;;;;;;13.75;100.00;92435.28;2115034;28;20027;-84
2021/06/21 02:51:08;;;;;;;5.60;1.50;;;;;;;13.74;100.00;92424.97;2116357;27;20019;-85
2021/06/21 02:52:19;;;;;;;2.58;1.27;;;;;;;13.74;100.00;92424.97;2124478;27;20023;-85
2021/06/21 02:53:31;;;;;;;6.47;1.35;;;;;;;13.73;100.00;92415.41;2112711;28;20024;-84
2021/06/21 02:54:42;;;;;;;6.50;1.50;;;;;;;13.75;100.00;92411.09;2118350;27;20058;-86
2021/06/21 02:56:13;;;;;;;6.40;1.48;;;;;;;13.74;100.00;92415.00;2113876;28;20129;-84
2021/06/21 02:57:29;;;;;;;4.75;1.10;;;;;;;13.76;100.00;92414.53;2107305;28;20111;-84
2021/06/21 02:58:43;;;;;;;7.93;1.50;;;;;;;13.69;100.00;92420.22;2108073;27;20019;-85
2021/06/21 02:59:45;;;;;;;2.75;1.30;;;;;;;13.66;100.00;92423.81;2113710;27;20038;-84
2021/06/21 03:00:50;;;;;;;5.75;1.48;;;;;;;13.59;100.00;92422.19;2120117;27;20023;-85
2021/06/21 03:01:54;;;;;;;6.95;1.40;;;;;;;13.62;100.00;92417.84;2116571;28;20024;-84
2021/06/21 03:02:56;;;;;;;3.97;1.60;;;;;;;13.62;100.00;92418.59;2119830;27;20472;-86
2021/06/21 03:03:59;;;;;;;2.75;1.00;;;;;;;13.65;100.00;92414.25;2120469;27;20078;-85
2021/06/21 03:05:01;;;;;;;2.78;1.25;;;;;;;13.64;100.00;92412.75;2114665;28;20473;-85
2021/06/21 03:06:03;;;;;;;3.53;1.38;;;;;;;13.62;100.00;92399.06;2111306;27;20444;-85
2021/06/21 03:07:06;;;;;;;5.28;1.30;;;;;;;13.61;100.00;92398.31;2118931;28;20030;-86
2021/06/21 03:08:10;;;;;;;5.55;1.70;;;;;;;13.62;100.00;92391.00;2120226;28;20526;-85
2021/06/21 03:09:12;;;;;;;3.90;1.42;;;;;;;13.61;100.00;92390.25;2117743;28;20055;-86
2021/06/21 03:10:14;;;;;;;3.42;1.08;;;;;;;13.63;100.00;92390.53;2108010;27;20103;-85
2021/06/21 03:11:16;;;;;;;4.47;1.30;;;;;;;13.65;100.00;92390.06;2113481;28;20112;-85
2021/06/21 03:12:22;;;;;;;4.88;1.27;;;;;;;13.60;100.00;92394.13;2109449;28;20505;-85
2021/06/21 03:13:24;;;;;;;8.30;1.60;;;;;;;13.57;100.00;92408.47;2109305;28;20118;-85
2021/06/21 03:14:26;;;;;;;5.05;1.38;;;;;;;13.57;100.00;92413.84;2110590;28;20073;-84
2021/06/21 03:15:29;;;;;;;5.25;1.67;;;;;;;13.60;100.00;92418.28;2107838;28;20020;-85
2021/06/21 03:16:31;;;;;;;3.65;1.05;;;;;;;13.55;100.00;92425.00;2111819;28;20027;-85
2021/06/21 03:17:35;;;;;;;5.30;1.40;;;;;;;13.58;100.00;92421.44;2100519;28;20058;-86
2021/06/21 03:18:36;;;;;;;5.15;1.25;;;;;;;13.58;100.00;92434.13;2091392;28;20104;-84
2021/06/21 03:19:37;;;;;;;3.42;1.55;;;;;;;13.55;100.00;92433.06;2100540;28;20090;-86
2021/06/21 03:20:38;;;;;;;6.90;1.45;;;;;;;13.54;100.00;92438.91;2111764;28;20392;-84
2021/06/21 03:21:42;;;;;;;3.28;1.20;;;;;;;13.54;100.00;92434.28;2101717;28;20434;-86
2021/06/21 03:22:44;;;;;;;4.30;1.10;;;;;;;13.52;100.00;92427.84;2092446;28;20024;-85
2021/06/21 03:23:50;;;;;;;5.38;1.55;;;;;;;13.56;100.00;92431.91;2108487;28;20027;-84
2021/06/21 03:24:53;;;;;;;5.40;1.50;;;;;;;13.58;100.00;92437.53;2102255;28;20047;-85
2021/06/21 03:25:56;;;;;;;4.20;1.20;;;;;;;13.56;100.00;92439.19;2102126;27;20521;-85
2021/06/21 03:26:56;;;;;;;4.82;1.30;;;;;;;13.49;100.00;92434.88;2102032;28;20047;-84
2021/06/21 03:28:06;;;;;;;4.85;1.10;;;;;;;13.54;100.00;92439.63;2109858;28;20055;-84
2021/06/21 03:29:18;;;;;;;4.30;1.60;;;;;;;13.54;100.00;92433.53;2111926;27;20126;-85
2021/06/21 03:30:20;;;;;;;2.50;1.20;;;;;;;13.61;100.00;92435.91;2103027;28;20559;-85
2021/06/21 03:31:23;;;;;;;5.38;1.45;;;;;;;13.60;100.00;92432.47;2097978;28;20036;-85
2021/06/21 03:32:25;;;;;;;3.45;1.52;;;;;;;13.64;100.00;92428.88;2111176;27;20461;-84
2021/06/21 03:33:27;;;;;;;4.40;1.42;;;;;;;13.68;100.00;92429.47;2122366;27;20031;-85
2021/06/21 03:34:28;;;;;;;4.38;0.95;;;;;;;13.64;100.00;92431.56;2109748;28;20019;-86
2021/06/21 03:35:29;;;;;;;3.65;1.40;;;;;;;13.61;100.00;92433.22;2092884;28;20025;-85
2021/06/21 03:36:29;;;;;;;4.72;1.20;;;;;;;13.60;100.00;92435.13;2092264;28;20555;-84
2021/06/21 03:37:30;;;;;;;4.38;1.58;;;;;;;13.60;100.00;92431.72;2110449;28;20062;-85
2021/06/21 03:38:31;;;;;;;4.50;1.30;;;;;;;13.63;100.00;92435.44;2117894;27;20024;-86
2021/06/21 03:39:32;;;;;;;2.88;1.13;;;;;;;13.69;100.00;92436.31;2097513;28;20021;-86
2021/06/21 03:40:33;;;;;;;4.47;1.10;;;;;;;13.66;100.00;92429.94;2101389;28;20028;-85
2021/06/21 03:41:34;;;;;;;6.20;1.35;;;;;;;13.69;100.00;92439.75;2102110;28;20039;-85
2021/06/21 03:42:37;;;;;;;5.20;1.25;;;;;;;13.70;100.00;92435.16;2100397;28;20078;-84
2021/06/21 03:43:38;;;;;;;4.22;1.00;;;;;;;13.73;100.00;92437.66;2108883;28;20457;-84
2021/06/21 03:44:39;;;;;;;2.95;1.30;;;;;;;13.80;100.00;92439.28;2099680;28;20024;-85
2021/06/21 03:45:41;;;;;;;4.65;1.52;;;;;;;13.74;100.00;92441.84;2101126;28;20058;-84
2021/06/21 03:46:41;;;;;;;5.05;1.38;;;;;;;13.69;100.00;92439.00;2099381;28;20024;-86
2021/06/21 03:47:42;;;;;;;6.80;1.48;;;;;;;13.67;100.00;92427.97;2101414;28;20028;-85
2021/06/21 03:48:43;;;;;;;5.85;1.48;;;;;;;13.58;100.00;92426.81;2107653;28;20024;-85
2021/06/21 03:49:46;;;;;;;5.03;1.30;;;;;;;13.63;100.00;92427.41;2099502;28;20028;-84
2021/06/21 03:50:47;;;;;;;3.28;1.25;;;;;;;13.68;100.00;92418.72;2094826;28;20024;-84
2021/06/21 03:51:47;;;;;;;4.63;1.05;;;;;;;13.74;100.00;92415.00;2102799;28;20024;-84
2021/06/21 03:52:48;;;;;;;4.65;1.25;;;;;;;13.68;100.00;92414.09;2105511;28;20540;-85
2021/06/21 03:53:49;;;;;;;2.78;1.00;;;;;;;13.69;100.00;92417.53;2101297;28;20516;-86
2021/06/21 03:55:05;;;;;;;4.88;1.10;;;;;;;13.70;100.00;92408.28;2109680;28;20031;-85
2021/06/21 03:56:06;;;;;;;3.72;1.20;;;;;;;13.69;100.00;92418.25;2093263;28;20500;-85
2021/06/21 03:57:08;;;;;;;5.28;1.45;;;;;;;13.60;100.00;92416.34;2092765;28;20034;-86
2021/06/21 03:58:08;;;;;;;6.05;1.40;;;;;;;13.62;100.00;92420.53;2093049;28;20063;-85
2021/06/21 03:59:09;;;;;;;4.93;1.30;;;;;;;13.59;100.00;92417.53;2101364;28;20089;-84
2021/06/21 04:00:15;;;;;;;4.05;1.50;;;;;;;13.61;100.00;92409.06;2101773;28;20481;-85
2021/06/21 04:01:15;;;;;;;4.65;1.42;;;;;;;13.64;100.00;92407.41;2103501;27;20039;-85
2021/06/21 04:02:16;;;;;;;4.60;1.30;;;;;;;13.54;100.00;92406.69;2117753;27;20031;-84
2021/06/21 04:03:17;;;;;;;3.22;1.30;;;;;;;13.62;100.00;92402.47;2101413;28;20481;-84
2021/06/21 04:04:18;;;;;;;2.85;1.00;;;;;;;13.62;100.00;92404.44;2105426;28;20043;-84
2021/06/21 04:05:20;;;;;;;4.18;1.40;;;;;;;13.60;100.00;92419.03;2102357;28;20044;-85
2021/06/21 04:06:21;;;;;;;5.35;1.25;;;;;;;13.66;100.00;92402.31;2100887;27;20026;-85
2021/06/21 04:07:22;;;;;;;6.95;1.50;;;;;;;13.71;100.00;92409.78;2113265;28;20055;-84
2021/06/21 04:08:23;;;;;;;6.03;1.70;;;;;;;13.69;100.00;92406.78;2105279;28;20024;-84
2021/06/21 04:09:23;;;;;;;7.43;1.65;;;;;;;13.71;100.00;92415.13;2101095;28;20028;-85
2021/06/21 04:10:26;;;;;;;6.10;1.55;;;;;;;13.73;100.00;92416.16;2101221;28;20022;-85
2021/06/21 04:11:28;;;;;;;6.70;1.55;;;;;;;13.78;100.00;92420.19;2093560;28;20504;-85
2021/06/21 04:12:30;;;;;;;5.50;1.38;;;;;;;13.81;100.00;92421.97;2093125;28;20031;-85
2021/06/21 04:13:33;;;;;;;5.63;1.27;;;;;;;13.79;100.00;92419.75;2092898;28;20139;-85
2021/06/21 04:14:34;;;;;;;5.85;1.65;;;;;;;13.82;100.00;92423.44;2103345;28;20035;-84
2021/06/21 04:15:35;;;;;;;5.22;1.40;;;;;;;13.79;100.00;92425.13;2118081;27;20030;-85
2021/06/21 04:16:35;;;;;;;6.05;1.67;;;;;;;13.86;100.00;92424.03;2118612;27;20051;-85
2021/06/21 04:17:37;;;;;;;3.80;1.17;;;;;;;13.72;100.00;92438.84;2104858;28;20370;-85
2021/06/21 04:18:38;;;;;;;4.80;1.27;;;;;;;13.80;100.00;92423.91;2118818;27;20384;-84
2021/06/21 04:19:39;;;;;;;7.20;1.67;;;;;;;13.86;100.00;92424.78;2100307;28;20078;-83
2021/06/21 04:20:42;;;;;;;5.93;1.58;;;;;;;13.97;100.00;92424.31;2108733;28;20012;-85
2021/06/21 04:21:42;;;;;;;4.28;1.40;;;;;;;13.99;100.00;92429.22;2119288;27;20058;-85
2021/06/21 04:22:44;;;;;;;6.80;1.60;;;;;;;14.01;100.00;92427.56;2113134;28;20388;-84
2021/06/21 04:23:44;;;;;;;4.15;1.55;;;;;;;13.91;100.00;92428.78;2106816;28;20020;-85
2021/06/21 04:24:45;;;;;;;3.72;1.30;;;;;;;14.05;100.00;92422.78;2112786;28;20528;-84
2021/06/21 04:25:46;;;;;;;5.50;1.80;;;;;;;13.94;100.00;92427.16;2110266;28;20082;-85
2021/06/21 04:26:47;;;;;;;5.57;1.27;;;;;;;13.97;100.00;92421.63;2091919;28;20117;-85
2021/06/21 04:27:48;;;;;;;3.97;1.40;;;;;;;14.04;100.00;92423.22;2088205;28;20021;-84
2021/06/21 04:28:49;;;;;;;4.93;1.58;;;;;;;13.88;100.00;92421.66;2114795;28;20311;-84
2021/06/21 04:29:50;;;;;;;5.90;1.27;;;;;;;14.04;100.00;92423.97;2116968;27;20137;-85
2021/06/21 04:30:51;;;;;;;4.80;1.58;;;;;;;14.02;100.00;92423.69;2104952;28;20020;-85
2021/06/21 04:31:51;;;;;;;3.08;1.58;;;;;;;13.95;100.00;92417.88;2107305;28;20047;-84
2021/06/21 04:32:53;;;;;;;5.05;1.63;;;;;;;13.91;100.00;92420.72;2096546;28;20164;-84
2021/06/21 04:33:54;;;;;;;2.88;1.67;;;;;;;14.02;100.00;92412.19;2092186;28;20021;-84
2021/06/21 04:34:54;;;;;;;5.75;1.60;;;;;;;13.99;100.00;92413.09;2096678;28;20467;-84
2021/06/21 04:35:55;;;;;;;2.88;1.20;;;;;;;13.92;100.00;92414.19;2100596;28;20579;-85
2021/06/21 04:36:56;;;;;;;3.42;1.63;;;;;;;13.90;100.00;92415.81;2117845;27;20031;-85
2021/06/21 04:37:57;;;;;;;5.45;1.60;;;;;;;13.94;100.00;92425.19;2118102;27;20106;-84
2021/06/21 04:38:58;;;;;;;1.92;1.25;;;;;;;13.90;100.00;92429.25;2109228;28;20050;-85
2021/06/21 04:40:00;;;;;;;7.80;1.67;;;;;;;13.86;100.00;92435.53;2096543;28;20032;-84
2021/06/21 04:41:01;;;;;;;5.22;1.50;;;;;;;13.79;100.00;92446.59;2110090;28;20478;-85
2021/06/21 04:42:03;;;;;;;3.97;1.52;;;;;;;13.83;100.00;92446.44;2104410;28;20470;-84
2021/06/21 04:43:04;;;;;;;4.63;1.60;;;;;;;13.83;100.00;92441.81;2093443;28;20043;-84
2021/06/21 04:44:05;;;;;;;3.88;1.52;;;;;;;13.87;100.00;92444.31;2112910;28;20080;-84
2021/06/21 04:45:06;;;;;;;3.67;1.25;;;;;;;13.80;100.00;92450.03;2110367;28;20464;-85
2021/06/21 04:46:07;;;;;;;4.00;1.58;;;;;;;13.79;100.00;92451.97;2096590;28;20059;-84
2021/06/21 04:47:08;;;;;;;4.60;1.60;;;;;;;13.77;100.00;92446.28;2092103;28;20025;-84
2021/06/21 04:48:09;;;;;;;4.20;1.70;;;;;;;13.82;100.00;92451.06;2113221;28;20111;-84
2021/06/21 04:49:13;;;;;;;2.20;1.48;;;;;;;13.85;100.00;92452.84;2117597;27;20024;-84
2021/06/21 04:50:17;;;;;;;2.55;1.67;;;;;;;13.88;100.00;92451.22;2109892;27;20384;-85
2021/06/21 04:51:20;;;;;;;3.83;1.90;;;;;;;13.83;100.00;92455.25;2109723;27;20463;-85
2021/06/21 04:52:23;;;;;;;4.40;1.77;;;;;;;13.79;100.00;92453.91;2109879;27;20486;-85
2021/06/21 04:53:24;;;;;;;4.43;1.95;;;;;;;13.83;100.00;92449.88;2105160;28;20043;-85
2021/06/21 04:54:24;;;;;;;5.22;1.63;;;;;;;13.80;100.00;92456.16;2091878;28;20017;-85